Baltimore, Maryland
Traffic Map
Current Weather Conditions
Baltimore, Maryland
Overcast
Overcast
42°
Feels Like: 39°
Wind Chill: 39° Ceiling: 6500
Heat Index: 42° Visibility: 10mi
Dew Point: 32° Wind: 5mph
Humidity: 67% Direction: 260° (W)
Pressure: 30.04in Gusts: 0mph
Raw Report DataKBWI 081354Z 26004KT 10SM SCT044 BKN065 OVC100 06/00 A3004 RMK AO2 SLP173 T00560000
Traffic Incident Summary
Active as of:
Severity:
Category:
InformationThere was an issue retrieving the traffic information for this location. Please try a different location or try again shortly.
Advertisements
Track Severe Weather on mobile